Airfield :
LOGIN :

Register | Disclaimer

   EN    FR    IT 

 










Legend :    VFR   Marginal VFR   IFR   Intensive IFR   Very Intensive IFR
Visi :
Ceiling :
>= 8 km
>= 3000ft
5 to 8 km
1000 to 3000 ft
1500m to 5 km
500 to 1000 ft
800 to 1500m
200 to 500 ft
< 800m
< 200 ft
Symbols :   Thunderstorms  Fog  Heavy snow  Heavy precipitations  Wind > 20 kt
SIGMETs :     Misc.  Thunderstorms  Icing  Turbulence  Mountain Waves  Volcanic Ashes






- Airport Elevation : 39 ft
- IATA code : TRS


LIPQ - Friuli Venezia Giulia Apt. Trieste

CURRENT METAR :
  • 171920Z AUTO 28003KT 0100 R09/0450N FZFG VV002 M00/M00 Q1024

EXPIRED METARs :
  • 171850Z AUTO VRB01KT 0100 R09/0350N FG VV003 00/00 Q1024
  • 171820Z AUTO 25003KT 0100 R09/0450N FG VV002 00/00 Q1024
  • 171750Z AUTO 33003KT 0150 R09/0650U FG VV001 03/03 Q1024
  • 171720Z AUTO 23002KT 0300 R09/0600D BCFG NCD 04/03 Q1023
  • 171650Z AUTO 17002KT 4700 BR NCD 05/04 Q1023

TAF AMD TAF LIPQ
Valid from the 17 at 18:00 until the 18 at 18:00 UTC


171723Z 1718/1818 VRB05KT 0400 FG OVC001
TEMPO 1718/1806 0050 FZFG
BECMG 1807/1809 6000 NSC



MET'MAP, your aeronautical weather chart ! - Copyright ORBIFLY December 2007 - Disclaimer

ORBIFLY MET'MAP TEAM :

Programming & Development : Alexandra Zaïnal
Concept & original design : Baudouin d'Aumeries
Assistance for programming : Marc-Olivier Méhu
Technical & hardware support : Manuel Goepfert

Contact : metmap@orbifly.com




SOURCES & CREDITS :

   NOAA